sensor_id;sensor_type;location;lat;lon;timestamp;P1;durP1;ratioP1;P2;durP2;ratioP2
8044;SDS011;4065;48.754;9.982;2022-11-15T00:02:26;9.10;;;5.95;;
8044;SDS011;4065;48.754;9.982;2022-11-15T00:05:27;6.80;;;6.05;;
8044;SDS011;4065;48.754;9.982;2022-11-15T00:08:31;7.53;;;6.20;;
8044;SDS011;4065;48.754;9.982;2022-11-15T00:11:32;6.28;;;5.25;;
8044;SDS011;4065;48.754;9.982;2022-11-15T00:14:34;7.03;;;5.68;;
8044;SDS011;4065;48.754;9.982;2022-11-15T00:17:36;7.65;;;6.32;;
8044;SDS011;4065;48.754;9.982;2022-11-15T00:20:40;7.45;;;5.88;;
8044;SDS011;4065;48.754;9.982;2022-11-15T00:23:44;7.55;;;5.90;;
8044;SDS011;4065;48.754;9.982;2022-11-15T00:26:46;7.68;;;5.57;;
8044;SDS011;4065;48.754;9.982;2022-11-15T00:29:47;8.45;;;6.50;;
8044;SDS011;4065;48.754;9.982;2022-11-15T00:32:49;6.93;;;5.97;;
8044;SDS011;4065;48.754;9.982;2022-11-15T00:35:50;10.38;;;6.65;;
8044;SDS011;4065;48.754;9.982;2022-11-15T00:38:53;10.15;;;7.45;;
8044;SDS011;4065;48.754;9.982;2022-11-15T00:41:55;9.32;;;6.47;;
8044;SDS011;4065;48.754;9.982;2022-11-15T00:44:57;6.90;;;4.90;;
8044;SDS011;4065;48.754;9.982;2022-11-15T00:47:59;5.65;;;5.05;;
8044;SDS011;4065;48.754;9.982;2022-11-15T00:51:00;6.18;;;5.57;;
8044;SDS011;4065;48.754;9.982;2022-11-15T00:54:03;5.85;;;5.07;;
8044;SDS011;4065;48.754;9.982;2022-11-15T00:57:05;6.03;;;5.20;;
8044;SDS011;4065;48.754;9.982;2022-11-15T01:00:07;6.72;;;5.93;;
8044;SDS011;4065;48.754;9.982;2022-11-15T01:03:10;7.57;;;5.70;;
8044;SDS011;4065;48.754;9.982;2022-11-15T01:06:11;9.45;;;6.55;;
8044;SDS011;4065;48.754;9.982;2022-11-15T01:09:14;8.80;;;6.88;;
8044;SDS011;4065;48.754;9.982;2022-11-15T01:12:16;9.48;;;6.30;;
8044;SDS011;4065;48.754;9.982;2022-11-15T01:15:18;8.27;;;6.55;;
8044;SDS011;4065;48.754;9.982;2022-11-15T01:18:19;10.23;;;6.85;;
8044;SDS011;4065;48.754;9.982;2022-11-15T01:21:21;9.80;;;6.85;;
8044;SDS011;4065;48.754;9.982;2022-11-15T01:24:24;9.23;;;6.95;;
8044;SDS011;4065;48.754;9.982;2022-11-15T01:27:26;7.80;;;5.43;;
8044;SDS011;4065;48.754;9.982;2022-11-15T01:30:27;6.50;;;5.82;;
8044;SDS011;4065;48.754;9.982;2022-11-15T01:33:29;7.00;;;5.22;;
8044;SDS011;4065;48.754;9.982;2022-11-15T01:36:34;5.75;;;5.20;;
8044;SDS011;4065;48.754;9.982;2022-11-15T01:39:38;5.88;;;5.20;;
8044;SDS011;4065;48.754;9.982;2022-11-15T01:42:39;9.27;;;5.63;;
8044;SDS011;4065;48.754;9.982;2022-11-15T01:45:41;7.55;;;6.22;;
8044;SDS011;4065;48.754;9.982;2022-11-15T01:48:45;9.80;;;6.93;;
8044;SDS011;4065;48.754;9.982;2022-11-15T01:51:46;8.18;;;6.45;;
8044;SDS011;4065;48.754;9.982;2022-11-15T01:54:54;6.50;;;5.90;;
8044;SDS011;4065;48.754;9.982;2022-11-15T01:58:01;6.72;;;5.85;;
8044;SDS011;4065;48.754;9.982;2022-11-15T02:01:04;9.07;;;5.95;;
8044;SDS011;4065;48.754;9.982;2022-11-15T02:04:06;6.95;;;6.00;;
8044;SDS011;4065;48.754;9.982;2022-11-15T02:07:12;8.10;;;6.10;;
8044;SDS011;4065;48.754;9.982;2022-11-15T02:10:18;6.18;;;5.50;;
8044;SDS011;4065;48.754;9.982;2022-11-15T02:13:23;7.38;;;6.00;;
8044;SDS011;4065;48.754;9.982;2022-11-15T02:16:26;6.90;;;5.82;;
8044;SDS011;4065;48.754;9.982;2022-11-15T02:19:37;6.65;;;5.75;;
8044;SDS011;4065;48.754;9.982;2022-11-15T02:22:51;6.28;;;5.63;;
8044;SDS011;4065;48.754;9.982;2022-11-15T02:26:11;10.10;;;5.93;;
8044;SDS011;4065;48.754;9.982;2022-11-15T02:29:34;8.07;;;6.93;;
8044;SDS011;4065;48.754;9.982;2022-11-15T02:32:45;7.15;;;6.55;;
8044;SDS011;4065;48.754;9.982;2022-11-15T02:35:52;7.20;;;6.50;;
8044;SDS011;4065;48.754;9.982;2022-11-15T02:38:59;7.35;;;6.65;;
8044;SDS011;4065;48.754;9.982;2022-11-15T02:42:07;9.02;;;6.90;;
8044;SDS011;4065;48.754;9.982;2022-11-15T02:45:32;6.93;;;6.20;;
8044;SDS011;4065;48.754;9.982;2022-11-15T02:48:37;8.77;;;6.32;;
8044;SDS011;4065;48.754;9.982;2022-11-15T02:51:39;11.38;;;6.72;;
8044;SDS011;4065;48.754;9.982;2022-11-15T02:54:52;7.80;;;6.05;;
8044;SDS011;4065;48.754;9.982;2022-11-15T02:57:57;7.70;;;6.55;;
8044;SDS011;4065;48.754;9.982;2022-11-15T03:01:08;11.20;;;8.02;;
8044;SDS011;4065;48.754;9.982;2022-11-15T03:04:18;8.50;;;7.60;;
8044;SDS011;4065;48.754;9.982;2022-11-15T03:07:27;8.88;;;6.10;;
8044;SDS011;4065;48.754;9.982;2022-11-15T03:10:32;6.93;;;6.18;;
8044;SDS011;4065;48.754;9.982;2022-11-15T03:13:43;8.77;;;7.28;;
8044;SDS011;4065;48.754;9.982;2022-11-15T03:16:49;9.45;;;6.88;;
8044;SDS011;4065;48.754;9.982;2022-11-15T03:19:54;7.18;;;6.43;;
8044;SDS011;4065;48.754;9.982;2022-11-15T03:22:59;7.60;;;6.90;;
8044;SDS011;4065;48.754;9.982;2022-11-15T03:26:03;12.70;;;7.40;;
8044;SDS011;4065;48.754;9.982;2022-11-15T03:29:08;6.63;;;5.97;;
8044;SDS011;4065;48.754;9.982;2022-11-15T03:32:13;7.00;;;6.32;;
8044;SDS011;4065;48.754;9.982;2022-11-15T03:35:19;11.02;;;6.75;;
8044;SDS011;4065;48.754;9.982;2022-11-15T03:38:22;8.85;;;6.65;;
8044;SDS011;4065;48.754;9.982;2022-11-15T03:41:27;6.88;;;5.93;;
8044;SDS011;4065;48.754;9.982;2022-11-15T03:44:34;5.68;;;5.13;;
8044;SDS011;4065;48.754;9.982;2022-11-15T03:47:41;7.25;;;6.03;;
8044;SDS011;4065;48.754;9.982;2022-11-15T03:50:47;7.05;;;5.60;;
8044;SDS011;4065;48.754;9.982;2022-11-15T03:53:49;6.20;;;5.60;;
8044;SDS011;4065;48.754;9.982;2022-11-15T03:56:51;7.68;;;6.18;;
8044;SDS011;4065;48.754;9.982;2022-11-15T03:59:55;7.22;;;6.10;;
8044;SDS011;4065;48.754;9.982;2022-11-15T04:02:59;8.10;;;6.88;;
8044;SDS011;4065;48.754;9.982;2022-11-15T04:06:02;6.70;;;6.10;;
8044;SDS011;4065;48.754;9.982;2022-11-15T04:09:04;6.70;;;6.00;;
8044;SDS011;4065;48.754;9.982;2022-11-15T04:12:05;9.43;;;5.82;;
8044;SDS011;4065;48.754;9.982;2022-11-15T04:15:10;6.88;;;6.18;;
8044;SDS011;4065;48.754;9.982;2022-11-15T04:18:13;8.07;;;6.20;;
8044;SDS011;4065;48.754;9.982;2022-11-15T04:21:16;7.40;;;6.70;;
8044;SDS011;4065;48.754;9.982;2022-11-15T04:24:38;7.72;;;6.55;;
8044;SDS011;4065;48.754;9.982;2022-11-15T04:27:40;7.57;;;6.78;;
8044;SDS011;4065;48.754;9.982;2022-11-15T04:30:41;12.10;;;8.90;;
8044;SDS011;4065;48.754;9.982;2022-11-15T04:33:44;14.25;;;11.57;;
8044;SDS011;4065;48.754;9.982;2022-11-15T04:36:57;18.17;;;13.93;;
8044;SDS011;4065;48.754;9.982;2022-11-15T04:40:16;18.15;;;14.63;;
8044;SDS011;4065;48.754;9.982;2022-11-15T04:43:17;10.75;;;9.65;;
8044;SDS011;4065;48.754;9.982;2022-11-15T04:46:23;10.75;;;7.50;;
8044;SDS011;4065;48.754;9.982;2022-11-15T04:49:28;7.05;;;6.28;;
8044;SDS011;4065;48.754;9.982;2022-11-15T04:52:51;11.18;;;5.45;;
8044;SDS011;4065;48.754;9.982;2022-11-15T04:55:53;8.63;;;6.22;;
8044;SDS011;4065;48.754;9.982;2022-11-15T04:58:55;8.23;;;6.90;;
8044;SDS011;4065;48.754;9.982;2022-11-15T05:01:57;8.55;;;6.95;;
8044;SDS011;4065;48.754;9.982;2022-11-15T05:05:07;10.32;;;6.32;;
8044;SDS011;4065;48.754;9.982;2022-11-15T05:08:13;7.75;;;6.93;;
8044;SDS011;4065;48.754;9.982;2022-11-15T05:11:15;6.15;;;5.55;;
8044;SDS011;4065;48.754;9.982;2022-11-15T05:14:18;8.00;;;5.35;;
8044;SDS011;4065;48.754;9.982;2022-11-15T05:17:19;7.07;;;6.38;;
8044;SDS011;4065;48.754;9.982;2022-11-15T05:20:21;8.93;;;5.70;;
8044;SDS011;4065;48.754;9.982;2022-11-15T05:23:24;5.72;;;5.10;;
8044;SDS011;4065;48.754;9.982;2022-11-15T05:26:26;6.32;;;5.13;;
8044;SDS011;4065;48.754;9.982;2022-11-15T05:29:28;6.05;;;5.45;;
8044;SDS011;4065;48.754;9.982;2022-11-15T05:32:30;7.43;;;6.35;;
8044;SDS011;4065;48.754;9.982;2022-11-15T05:35:32;8.68;;;6.00;;
8044;SDS011;4065;48.754;9.982;2022-11-15T05:38:37;6.72;;;4.78;;
8044;SDS011;4065;48.754;9.982;2022-11-15T05:41:40;7.38;;;5.68;;
8044;SDS011;4065;48.754;9.982;2022-11-15T05:44:52;8.43;;;5.35;;
8044;SDS011;4065;48.754;9.982;2022-11-15T05:47:54;9.38;;;5.70;;
8044;SDS011;4065;48.754;9.982;2022-11-15T05:50:58;9.23;;;5.75;;
8044;SDS011;4065;48.754;9.982;2022-11-15T05:54:01;13.95;;;6.03;;
8044;SDS011;4065;48.754;9.982;2022-11-15T05:57:03;8.55;;;5.50;;
8044;SDS011;4065;48.754;9.982;2022-11-15T06:00:07;8.23;;;5.97;;
8044;SDS011;4065;48.754;9.982;2022-11-15T06:03:09;6.47;;;5.47;;
8044;SDS011;4065;48.754;9.982;2022-11-15T06:06:15;8.38;;;5.50;;
8044;SDS011;4065;48.754;9.982;2022-11-15T06:09:22;5.88;;;5.38;;
8044;SDS011;4065;48.754;9.982;2022-11-15T06:12:24;6.45;;;5.72;;
8044;SDS011;4065;48.754;9.982;2022-11-15T06:15:26;6.05;;;5.25;;
8044;SDS011;4065;48.754;9.982;2022-11-15T06:18:28;5.75;;;5.18;;
8044;SDS011;4065;48.754;9.982;2022-11-15T06:21:32;7.28;;;5.95;;
8044;SDS011;4065;48.754;9.982;2022-11-15T06:24:37;6.45;;;5.75;;
8044;SDS011;4065;48.754;9.982;2022-11-15T06:27:38;8.15;;;5.95;;
8044;SDS011;4065;48.754;9.982;2022-11-15T06:30:40;7.72;;;6.68;;
8044;SDS011;4065;48.754;9.982;2022-11-15T06:33:42;8.93;;;7.43;;
8044;SDS011;4065;48.754;9.982;2022-11-15T06:36:44;157.25;;;75.15;;
8044;SDS011;4065;48.754;9.982;2022-11-15T06:39:47;111.88;;;52.17;;
8044;SDS011;4065;48.754;9.982;2022-11-15T06:42:48;207.50;;;100.82;;
8044;SDS011;4065;48.754;9.982;2022-11-15T06:45:50;137.80;;;65.07;;
8044;SDS011;4065;48.754;9.982;2022-11-15T06:48:52;132.30;;;63.35;;
8044;SDS011;4065;48.754;9.982;2022-11-15T06:51:54;128.85;;;61.25;;
8044;SDS011;4065;48.754;9.982;2022-11-15T06:54:57;139.65;;;62.78;;
8044;SDS011;4065;48.754;9.982;2022-11-15T06:57:59;128.63;;;61.42;;
8044;SDS011;4065;48.754;9.982;2022-11-15T07:01:00;59.40;;;33.13;;
8044;SDS011;4065;48.754;9.982;2022-11-15T07:04:03;46.60;;;26.08;;
8044;SDS011;4065;48.754;9.982;2022-11-15T07:07:04;27.85;;;17.52;;
8044;SDS011;4065;48.754;9.982;2022-11-15T07:10:08;25.73;;;16.90;;
8044;SDS011;4065;48.754;9.982;2022-11-15T07:13:10;31.73;;;19.58;;
8044;SDS011;4065;48.754;9.982;2022-11-15T07:16:12;25.88;;;16.88;;
8044;SDS011;4065;48.754;9.982;2022-11-15T07:19:14;28.75;;;16.77;;
8044;SDS011;4065;48.754;9.982;2022-11-15T07:22:15;23.95;;;15.60;;
8044;SDS011;4065;48.754;9.982;2022-11-15T07:25:18;29.95;;;19.10;;
8044;SDS011;4065;48.754;9.982;2022-11-15T07:28:20;31.38;;;21.33;;
8044;SDS011;4065;48.754;9.982;2022-11-15T07:31:22;30.42;;;19.33;;
8044;SDS011;4065;48.754;9.982;2022-11-15T07:34:23;31.75;;;19.35;;
8044;SDS011;4065;48.754;9.982;2022-11-15T07:37:25;29.80;;;18.52;;
8044;SDS011;4065;48.754;9.982;2022-11-15T07:40:28;28.58;;;17.23;;
8044;SDS011;4065;48.754;9.982;2022-11-15T07:43:31;22.80;;;14.85;;
8044;SDS011;4065;48.754;9.982;2022-11-15T07:46:33;23.70;;;15.43;;
8044;SDS011;4065;48.754;9.982;2022-11-15T07:49:35;29.63;;;16.80;;
8044;SDS011;4065;48.754;9.982;2022-11-15T07:52:37;24.60;;;15.90;;
8044;SDS011;4065;48.754;9.982;2022-11-15T07:55:40;19.23;;;13.73;;
8044;SDS011;4065;48.754;9.982;2022-11-15T07:58:42;21.95;;;14.43;;
8044;SDS011;4065;48.754;9.982;2022-11-15T08:01:49;19.67;;;13.35;;
8044;SDS011;4065;48.754;9.982;2022-11-15T08:04:51;19.90;;;12.57;;
8044;SDS011;4065;48.754;9.982;2022-11-15T08:07:55;19.23;;;13.07;;
8044;SDS011;4065;48.754;9.982;2022-11-15T08:10:58;15.50;;;11.55;;
8044;SDS011;4065;48.754;9.982;2022-11-15T08:14:00;16.55;;;12.25;;
8044;SDS011;4065;48.754;9.982;2022-11-15T08:17:01;17.83;;;12.55;;
8044;SDS011;4065;48.754;9.982;2022-11-15T08:20:03;14.57;;;11.25;;
8044;SDS011;4065;48.754;9.982;2022-11-15T08:23:06;16.02;;;12.20;;
8044;SDS011;4065;48.754;9.982;2022-11-15T08:26:11;15.88;;;11.52;;
8044;SDS011;4065;48.754;9.982;2022-11-15T08:29:13;19.00;;;11.95;;
8044;SDS011;4065;48.754;9.982;2022-11-15T08:32:15;15.98;;;11.70;;
8044;SDS011;4065;48.754;9.982;2022-11-15T08:35:20;17.67;;;13.27;;
8044;SDS011;4065;48.754;9.982;2022-11-15T08:38:22;15.13;;;12.75;;
8044;SDS011;4065;48.754;9.982;2022-11-15T08:41:28;22.08;;;14.15;;
8044;SDS011;4065;48.754;9.982;2022-11-15T08:44:31;16.85;;;12.95;;
8044;SDS011;4065;48.754;9.982;2022-11-15T08:47:33;16.65;;;12.88;;
8044;SDS011;4065;48.754;9.982;2022-11-15T08:50:35;17.80;;;14.93;;
8044;SDS011;4065;48.754;9.982;2022-11-15T08:53:37;14.77;;;12.50;;
8044;SDS011;4065;48.754;9.982;2022-11-15T08:56:42;16.58;;;12.48;;
8044;SDS011;4065;48.754;9.982;2022-11-15T08:59:47;16.15;;;12.05;;
8044;SDS011;4065;48.754;9.982;2022-11-15T09:02:48;15.38;;;11.38;;
8044;SDS011;4065;48.754;9.982;2022-11-15T09:05:53;13.45;;;10.98;;
8044;SDS011;4065;48.754;9.982;2022-11-15T09:08:58;16.13;;;12.15;;
8044;SDS011;4065;48.754;9.982;2022-11-15T09:12:03;15.80;;;12.38;;
8044;SDS011;4065;48.754;9.982;2022-11-15T09:15:05;14.57;;;11.23;;
8044;SDS011;4065;48.754;9.982;2022-11-15T09:18:08;14.18;;;11.35;;
8044;SDS011;4065;48.754;9.982;2022-11-15T09:21:10;14.73;;;9.23;;
8044;SDS011;4065;48.754;9.982;2022-11-15T09:24:11;11.57;;;10.13;;
8044;SDS011;4065;48.754;9.982;2022-11-15T09:27:14;11.23;;;10.02;;
8044;SDS011;4065;48.754;9.982;2022-11-15T09:30:19;17.60;;;11.77;;
8044;SDS011;4065;48.754;9.982;2022-11-15T09:33:20;14.52;;;11.57;;
8044;SDS011;4065;48.754;9.982;2022-11-15T09:36:22;12.10;;;10.80;;
8044;SDS011;4065;48.754;9.982;2022-11-15T09:39:26;11.23;;;9.70;;
8044;SDS011;4065;48.754;9.982;2022-11-15T09:42:37;12.80;;;9.40;;
8044;SDS011;4065;48.754;9.982;2022-11-15T09:45:52;10.43;;;9.18;;
8044;SDS011;4065;48.754;9.982;2022-11-15T09:49:02;11.48;;;8.02;;
8044;SDS011;4065;48.754;9.982;2022-11-15T09:52:06;9.80;;;7.70;;
8044;SDS011;4065;48.754;9.982;2022-11-15T09:55:16;6.32;;;5.60;;
8044;SDS011;4065;48.754;9.982;2022-11-15T09:58:24;6.28;;;5.60;;
8044;SDS011;4065;48.754;9.982;2022-11-15T10:01:44;7.18;;;4.85;;
8044;SDS011;4065;48.754;9.982;2022-11-15T10:04:55;4.97;;;4.47;;
8044;SDS011;4065;48.754;9.982;2022-11-15T10:07:59;7.40;;;5.00;;
8044;SDS011;4065;48.754;9.982;2022-11-15T10:11:05;4.78;;;4.10;;
8044;SDS011;4065;48.754;9.982;2022-11-15T10:14:11;5.70;;;4.68;;
8044;SDS011;4065;48.754;9.982;2022-11-15T10:17:19;6.10;;;4.75;;
8044;SDS011;4065;48.754;9.982;2022-11-15T10:20:32;5.55;;;4.55;;
8044;SDS011;4065;48.754;9.982;2022-11-15T10:23:44;7.25;;;4.72;;
8044;SDS011;4065;48.754;9.982;2022-11-15T10:27:09;6.85;;;4.75;;
8044;SDS011;4065;48.754;9.982;2022-11-15T10:30:15;5.63;;;5.03;;
8044;SDS011;4065;48.754;9.982;2022-11-15T10:33:27;6.97;;;5.45;;
8044;SDS011;4065;48.754;9.982;2022-11-15T10:36:37;5.70;;;5.20;;
8044;SDS011;4065;48.754;9.982;2022-11-15T10:39:39;6.63;;;5.90;;
8044;SDS011;4065;48.754;9.982;2022-11-15T10:42:41;5.93;;;5.32;;
8044;SDS011;4065;48.754;9.982;2022-11-15T10:45:44;6.68;;;5.65;;
8044;SDS011;4065;48.754;9.982;2022-11-15T10:48:48;6.03;;;5.10;;
8044;SDS011;4065;48.754;9.982;2022-11-15T10:51:53;5.05;;;4.47;;
8044;SDS011;4065;48.754;9.982;2022-11-15T10:54:56;5.28;;;4.78;;
8044;SDS011;4065;48.754;9.982;2022-11-15T10:58:02;5.82;;;5.18;;
8044;SDS011;4065;48.754;9.982;2022-11-15T11:01:09;5.68;;;5.18;;
8044;SDS011;4065;48.754;9.982;2022-11-15T11:04:13;6.22;;;4.65;;
8044;SDS011;4065;48.754;9.982;2022-11-15T11:07:19;6.10;;;5.03;;
8044;SDS011;4065;48.754;9.982;2022-11-15T11:10:24;6.93;;;5.78;;
8044;SDS011;4065;48.754;9.982;2022-11-15T11:13:27;6.10;;;5.47;;
8044;SDS011;4065;48.754;9.982;2022-11-15T11:16:41;7.63;;;5.63;;
8044;SDS011;4065;48.754;9.982;2022-11-15T11:19:46;13.15;;;11.45;;
8044;SDS011;4065;48.754;9.982;2022-11-15T11:23:02;6.55;;;5.00;;
8044;SDS011;4065;48.754;9.982;2022-11-15T11:26:31;6.47;;;3.75;;
8044;SDS011;4065;48.754;9.982;2022-11-15T11:29:44;4.22;;;3.53;;
8044;SDS011;4065;48.754;9.982;2022-11-15T11:33:01;3.47;;;3.17;;
8044;SDS011;4065;48.754;9.982;2022-11-15T11:36:11;4.28;;;3.38;;
8044;SDS011;4065;48.754;9.982;2022-11-15T11:39:24;3.85;;;3.50;;
8044;SDS011;4065;48.754;9.982;2022-11-15T11:42:30;4.00;;;3.25;;
8044;SDS011;4065;48.754;9.982;2022-11-15T11:45:53;3.05;;;2.83;;
8044;SDS011;4065;48.754;9.982;2022-11-15T11:49:06;4.13;;;3.42;;
8044;SDS011;4065;48.754;9.982;2022-11-15T11:52:11;4.72;;;3.83;;
8044;SDS011;4065;48.754;9.982;2022-11-15T11:55:17;4.32;;;3.22;;
8044;SDS011;4065;48.754;9.982;2022-11-15T11:58:23;4.18;;;3.53;;
8044;SDS011;4065;48.754;9.982;2022-11-15T12:01:33;3.78;;;2.88;;
8044;SDS011;4065;48.754;9.982;2022-11-15T12:04:42;4.30;;;3.20;;
8044;SDS011;4065;48.754;9.982;2022-11-15T12:07:48;4.72;;;3.28;;
8044;SDS011;4065;48.754;9.982;2022-11-15T12:10:56;4.22;;;3.38;;
8044;SDS011;4065;48.754;9.982;2022-11-15T12:14:03;5.25;;;4.03;;
8044;SDS011;4065;48.754;9.982;2022-11-15T12:17:14;4.68;;;4.28;;
8044;SDS011;4065;48.754;9.982;2022-11-15T12:20:21;4.45;;;3.92;;
8044;SDS011;4065;48.754;9.982;2022-11-15T12:23:25;6.88;;;6.25;;
8044;SDS011;4065;48.754;9.982;2022-11-15T12:26:30;6.07;;;5.40;;
8044;SDS011;4065;48.754;9.982;2022-11-15T12:29:35;6.38;;;5.78;;
8044;SDS011;4065;48.754;9.982;2022-11-15T12:32:49;5.45;;;4.80;;
8044;SDS011;4065;48.754;9.982;2022-11-15T12:36:00;10.00;;;6.20;;
8044;SDS011;4065;48.754;9.982;2022-11-15T12:39:03;7.43;;;4.80;;
8044;SDS011;4065;48.754;9.982;2022-11-15T12:45:43;6.13;;;5.05;;
8044;SDS011;4065;48.754;9.982;2022-11-15T12:52:10;4.90;;;4.40;;
8044;SDS011;4065;48.754;9.982;2022-11-15T12:55:32;4.65;;;4.10;;
8044;SDS011;4065;48.754;9.982;2022-11-15T12:58:41;8.32;;;5.75;;
8044;SDS011;4065;48.754;9.982;2022-11-15T13:01:59;4.97;;;4.20;;
8044;SDS011;4065;48.754;9.982;2022-11-15T13:05:50;4.03;;;3.33;;
8044;SDS011;4065;48.754;9.982;2022-11-15T13:08:54;3.45;;;2.90;;
8044;SDS011;4065;48.754;9.982;2022-11-15T13:11:57;3.60;;;3.30;;
8044;SDS011;4065;48.754;9.982;2022-11-15T13:14:59;4.32;;;3.15;;
8044;SDS011;4065;48.754;9.982;2022-11-15T13:21:32;5.60;;;3.85;;
8044;SDS011;4065;48.754;9.982;2022-11-15T13:24:56;7.72;;;4.35;;
8044;SDS011;4065;48.754;9.982;2022-11-15T13:28:01;15.85;;;6.20;;
8044;SDS011;4065;48.754;9.982;2022-11-15T13:31:13;16.23;;;5.15;;
8044;SDS011;4065;48.754;9.982;2022-11-15T13:34:26;10.82;;;4.68;;
8044;SDS011;4065;48.754;9.982;2022-11-15T13:37:30;8.27;;;4.20;;
8044;SDS011;4065;48.754;9.982;2022-11-15T13:40:35;10.20;;;4.28;;
8044;SDS011;4065;48.754;9.982;2022-11-15T13:43:38;9.43;;;6.07;;
8044;SDS011;4065;48.754;9.982;2022-11-15T13:46:42;6.72;;;5.30;;
8044;SDS011;4065;48.754;9.982;2022-11-15T13:53:01;6.32;;;5.05;;
8044;SDS011;4065;48.754;9.982;2022-11-15T13:56:09;5.50;;;4.68;;
8044;SDS011;4065;48.754;9.982;2022-11-15T13:59:14;6.70;;;4.60;;
8044;SDS011;4065;48.754;9.982;2022-11-15T14:02:29;10.40;;;6.10;;
8044;SDS011;4065;48.754;9.982;2022-11-15T14:05:32;8.50;;;5.60;;
8044;SDS011;4065;48.754;9.982;2022-11-15T14:08:33;7.85;;;5.28;;
8044;SDS011;4065;48.754;9.982;2022-11-15T14:11:37;6.32;;;5.10;;
8044;SDS011;4065;48.754;9.982;2022-11-15T14:14:44;9.40;;;5.07;;
8044;SDS011;4065;48.754;9.982;2022-11-15T14:17:48;6.60;;;4.82;;
8044;SDS011;4065;48.754;9.982;2022-11-15T14:20:50;5.03;;;3.53;;
8044;SDS011;4065;48.754;9.982;2022-11-15T14:24:16;5.10;;;3.70;;
8044;SDS011;4065;48.754;9.982;2022-11-15T14:27:21;4.55;;;4.10;;
8044;SDS011;4065;48.754;9.982;2022-11-15T14:30:25;5.70;;;3.92;;
8044;SDS011;4065;48.754;9.982;2022-11-15T14:33:29;7.53;;;5.30;;
8044;SDS011;4065;48.754;9.982;2022-11-15T14:36:32;8.23;;;5.47;;
8044;SDS011;4065;48.754;9.982;2022-11-15T14:39:33;8.57;;;6.10;;
8044;SDS011;4065;48.754;9.982;2022-11-15T14:42:36;7.75;;;5.47;;
8044;SDS011;4065;48.754;9.982;2022-11-15T14:45:38;7.10;;;4.95;;
8044;SDS011;4065;48.754;9.982;2022-11-15T14:48:40;5.28;;;4.75;;
8044;SDS011;4065;48.754;9.982;2022-11-15T14:51:42;5.40;;;3.83;;
8044;SDS011;4065;48.754;9.982;2022-11-15T14:54:44;4.60;;;4.07;;
8044;SDS011;4065;48.754;9.982;2022-11-15T14:57:47;4.70;;;4.30;;
8044;SDS011;4065;48.754;9.982;2022-11-15T15:00:50;4.30;;;3.80;;
8044;SDS011;4065;48.754;9.982;2022-11-15T15:03:52;5.90;;;4.90;;
8044;SDS011;4065;48.754;9.982;2022-11-15T15:06:59;5.18;;;4.63;;
8044;SDS011;4065;48.754;9.982;2022-11-15T15:10:01;10.40;;;7.63;;
8044;SDS011;4065;48.754;9.982;2022-11-15T15:13:08;8.38;;;5.40;;
8044;SDS011;4065;48.754;9.982;2022-11-15T15:16:18;5.68;;;4.65;;
8044;SDS011;4065;48.754;9.982;2022-11-15T15:19:19;6.82;;;5.65;;
8044;SDS011;4065;48.754;9.982;2022-11-15T15:22:21;6.10;;;5.50;;
8044;SDS011;4065;48.754;9.982;2022-11-15T15:25:29;6.65;;;5.97;;
8044;SDS011;4065;48.754;9.982;2022-11-15T15:28:34;5.90;;;5.32;;
8044;SDS011;4065;48.754;9.982;2022-11-15T15:31:37;8.30;;;6.35;;
8044;SDS011;4065;48.754;9.982;2022-11-15T15:34:41;8.93;;;6.07;;
8044;SDS011;4065;48.754;9.982;2022-11-15T15:37:50;8.57;;;7.38;;
8044;SDS011;4065;48.754;9.982;2022-11-15T15:40:52;9.07;;;7.68;;
8044;SDS011;4065;48.754;9.982;2022-11-15T15:43:57;7.82;;;7.03;;
8044;SDS011;4065;48.754;9.982;2022-11-15T15:47:01;6.80;;;5.88;;
8044;SDS011;4065;48.754;9.982;2022-11-15T15:50:17;7.93;;;6.40;;
8044;SDS011;4065;48.754;9.982;2022-11-15T15:53:22;11.40;;;7.15;;
8044;SDS011;4065;48.754;9.982;2022-11-15T15:56:23;11.43;;;7.32;;
8044;SDS011;4065;48.754;9.982;2022-11-15T15:59:29;10.38;;;9.20;;
8044;SDS011;4065;48.754;9.982;2022-11-15T16:02:31;8.82;;;7.65;;
8044;SDS011;4065;48.754;9.982;2022-11-15T16:05:32;9.60;;;7.70;;
8044;SDS011;4065;48.754;9.982;2022-11-15T16:08:34;9.88;;;8.32;;
8044;SDS011;4065;48.754;9.982;2022-11-15T16:11:37;11.00;;;8.30;;
8044;SDS011;4065;48.754;9.982;2022-11-15T16:14:40;16.38;;;12.55;;
8044;SDS011;4065;48.754;9.982;2022-11-15T16:17:43;15.32;;;11.90;;
8044;SDS011;4065;48.754;9.982;2022-11-15T16:20:47;9.90;;;8.55;;
8044;SDS011;4065;48.754;9.982;2022-11-15T16:23:52;10.27;;;9.02;;
8044;SDS011;4065;48.754;9.982;2022-11-15T16:26:53;13.15;;;9.50;;
8044;SDS011;4065;48.754;9.982;2022-11-15T16:29:56;10.32;;;9.32;;
8044;SDS011;4065;48.754;9.982;2022-11-15T16:32:58;11.02;;;9.10;;
8044;SDS011;4065;48.754;9.982;2022-11-15T16:36:00;9.98;;;8.68;;
8044;SDS011;4065;48.754;9.982;2022-11-15T16:39:01;11.25;;;9.40;;
8044;SDS011;4065;48.754;9.982;2022-11-15T16:42:04;12.73;;;9.25;;
8044;SDS011;4065;48.754;9.982;2022-11-15T16:45:07;16.98;;;11.55;;
8044;SDS011;4065;48.754;9.982;2022-11-15T16:48:17;27.30;;;16.27;;
8044;SDS011;4065;48.754;9.982;2022-11-15T16:51:22;19.45;;;14.13;;
8044;SDS011;4065;48.754;9.982;2022-11-15T16:54:24;16.60;;;13.93;;
8044;SDS011;4065;48.754;9.982;2022-11-15T16:57:26;17.85;;;14.65;;
8044;SDS011;4065;48.754;9.982;2022-11-15T17:00:29;16.38;;;14.20;;
8044;SDS011;4065;48.754;9.982;2022-11-15T17:03:30;19.40;;;14.13;;
8044;SDS011;4065;48.754;9.982;2022-11-15T17:06:32;16.20;;;12.85;;
8044;SDS011;4065;48.754;9.982;2022-11-15T17:09:33;15.60;;;13.52;;
8044;SDS011;4065;48.754;9.982;2022-11-15T17:12:35;15.38;;;12.38;;
8044;SDS011;4065;48.754;9.982;2022-11-15T17:15:38;14.07;;;11.75;;
8044;SDS011;4065;48.754;9.982;2022-11-15T17:18:40;14.68;;;12.40;;
8044;SDS011;4065;48.754;9.982;2022-11-15T17:21:44;14.82;;;11.95;;
8044;SDS011;4065;48.754;9.982;2022-11-15T17:24:48;42.33;;;28.27;;
8044;SDS011;4065;48.754;9.982;2022-11-15T17:27:50;54.05;;;37.00;;
8044;SDS011;4065;48.754;9.982;2022-11-15T17:30:53;47.42;;;33.50;;
8044;SDS011;4065;48.754;9.982;2022-11-15T17:33:54;22.20;;;17.63;;
8044;SDS011;4065;48.754;9.982;2022-11-15T17:36:56;21.40;;;16.05;;
8044;SDS011;4065;48.754;9.982;2022-11-15T17:39:58;16.08;;;14.23;;
8044;SDS011;4065;48.754;9.982;2022-11-15T17:43:00;18.45;;;15.73;;
8044;SDS011;4065;48.754;9.982;2022-11-15T17:46:05;18.10;;;16.15;;
8044;SDS011;4065;48.754;9.982;2022-11-15T17:49:08;19.55;;;15.32;;
8044;SDS011;4065;48.754;9.982;2022-11-15T17:52:10;18.70;;;16.13;;
8044;SDS011;4065;48.754;9.982;2022-11-15T17:55:12;23.00;;;19.00;;
8044;SDS011;4065;48.754;9.982;2022-11-15T17:58:13;19.73;;;16.48;;
8044;SDS011;4065;48.754;9.982;2022-11-15T18:01:20;19.98;;;14.43;;
8044;SDS011;4065;48.754;9.982;2022-11-15T18:04:22;20.88;;;15.43;;
8044;SDS011;4065;48.754;9.982;2022-11-15T18:07:27;15.55;;;13.40;;
8044;SDS011;4065;48.754;9.982;2022-11-15T18:10:28;34.95;;;24.48;;
8044;SDS011;4065;48.754;9.982;2022-11-15T18:13:30;88.82;;;46.80;;
8044;SDS011;4065;48.754;9.982;2022-11-15T18:16:34;72.55;;;41.13;;
8044;SDS011;4065;48.754;9.982;2022-11-15T18:19:36;69.40;;;40.13;;
8044;SDS011;4065;48.754;9.982;2022-11-15T18:22:38;57.72;;;36.95;;
8044;SDS011;4065;48.754;9.982;2022-11-15T18:25:40;21.23;;;16.63;;
8044;SDS011;4065;48.754;9.982;2022-11-15T18:28:44;17.75;;;14.27;;
8044;SDS011;4065;48.754;9.982;2022-11-15T18:31:47;18.85;;;16.05;;
8044;SDS011;4065;48.754;9.982;2022-11-15T18:34:49;21.70;;;17.20;;
8044;SDS011;4065;48.754;9.982;2022-11-15T18:37:51;20.63;;;16.48;;
8044;SDS011;4065;48.754;9.982;2022-11-15T18:40:55;27.65;;;21.10;;
8044;SDS011;4065;48.754;9.982;2022-11-15T18:43:59;26.10;;;21.95;;
8044;SDS011;4065;48.754;9.982;2022-11-15T18:47:03;21.95;;;18.70;;
8044;SDS011;4065;48.754;9.982;2022-11-15T18:50:04;20.90;;;18.23;;
8044;SDS011;4065;48.754;9.982;2022-11-15T18:53:07;23.73;;;19.08;;
8044;SDS011;4065;48.754;9.982;2022-11-15T18:56:09;23.65;;;19.48;;
8044;SDS011;4065;48.754;9.982;2022-11-15T18:59:12;24.38;;;19.38;;
8044;SDS011;4065;48.754;9.982;2022-11-15T19:02:15;22.35;;;15.40;;
8044;SDS011;4065;48.754;9.982;2022-11-15T19:05:17;17.65;;;14.93;;
8044;SDS011;4065;48.754;9.982;2022-11-15T19:08:20;21.67;;;14.70;;
8044;SDS011;4065;48.754;9.982;2022-11-15T19:11:22;18.75;;;15.05;;